createdAt,value
2019-03-01T00:00:00.835Z,34.73
2019-03-01T00:02:32.902Z,34.77
2019-03-01T00:05:42.371Z,35.63
2019-03-01T00:08:22.502Z,34.53
2019-03-01T00:11:17.145Z,36.73
2019-03-01T00:14:17.018Z,36.50
2019-03-01T00:17:36.666Z,36.27
2019-03-01T00:20:56.869Z,37.63
2019-03-01T00:24:17.172Z,38.53
2019-03-01T00:27:22.301Z,39.10
2019-03-01T00:30:28.667Z,41.07
2019-03-01T00:33:17.289Z,40.20
2019-03-01T00:36:32.821Z,40.83
2019-03-01T00:39:27.768Z,40.03
2019-03-01T00:42:25.883Z,41.73
2019-03-01T00:44:56.221Z,40.77
2019-03-01T00:47:26.759Z,40.87
2019-03-01T00:49:56.986Z,44.20
2019-03-01T00:52:28.129Z,42.97
2019-03-01T00:54:58.444Z,43.23
2019-03-01T00:57:28.680Z,43.43
2019-03-01T00:59:59.190Z,43.70
2019-03-01T01:02:29.431Z,46.73
2019-03-01T01:04:59.777Z,44.07
2019-03-01T01:07:30.148Z,45.77
2019-03-01T01:13:06.599Z,43.40
2019-03-01T01:15:36.825Z,45.97
2019-03-01T01:18:07.436Z,43.70
2019-03-01T01:20:37.609Z,42.67
2019-03-01T01:23:08.111Z,40.63
2019-03-01T01:25:38.334Z,43.00
2019-03-01T01:28:08.657Z,44.10
2019-03-01T01:30:38.975Z,43.13
2019-03-01T01:33:09.243Z,41.13
2019-03-01T01:35:39.774Z,41.30
2019-03-01T01:38:10.072Z,40.70
2019-03-01T01:40:40.216Z,40.13
2019-03-01T01:43:10.736Z,40.90
2019-03-01T01:45:41.026Z,41.37
2019-03-01T01:48:11.334Z,42.27
2019-03-01T01:50:41.694Z,40.23
2019-03-01T01:53:11.945Z,41.83
2019-03-01T01:55:42.233Z,40.30
2019-03-01T01:58:12.474Z,41.53
2019-03-01T02:00:42.697Z,39.50
2019-03-01T02:03:12.974Z,39.73
2019-03-01T02:05:44.444Z,40.47
2019-03-01T02:08:14.986Z,41.00
2019-03-01T02:10:45.258Z,38.60
2019-03-01T02:13:15.527Z,40.83
2019-03-01T02:15:45.811Z,39.77
2019-03-01T02:18:16.175Z,40.27
2019-03-01T02:20:46.758Z,39.40
2019-03-01T02:23:18.094Z,39.67
2019-03-01T02:25:48.306Z,40.23
2019-03-01T02:28:18.636Z,41.07
2019-03-01T02:30:49.373Z,39.40
2019-03-01T02:33:19.623Z,39.03
2019-03-01T02:35:49.916Z,37.53
2019-03-01T02:38:20.275Z,38.63
2019-03-01T02:40:50.523Z,40.90
2019-03-01T02:43:20.818Z,37.93
2019-03-01T02:45:51.070Z,39.93
2019-03-01T02:48:21.329Z,38.70
2019-03-01T02:50:51.671Z,36.80
2019-03-01T02:53:21.843Z,37.57
2019-03-01T02:55:52.102Z,37.67
2019-03-01T02:58:22.322Z,36.70
2019-03-01T03:00:52.608Z,37.70
2019-03-01T03:03:22.876Z,38.43
2019-03-01T03:06:12.244Z,33.97
2019-03-01T03:08:42.510Z,36.97
2019-03-01T03:11:12.967Z,35.47
2019-03-01T03:13:43.250Z,34.60
2019-03-01T03:16:13.702Z,33.50
2019-03-01T03:18:44.004Z,36.73
2019-03-01T03:21:14.249Z,34.33
2019-03-01T03:23:44.874Z,36.10
2019-03-01T03:26:15.234Z,34.63
2019-03-01T03:28:46.569Z,35.63
2019-03-01T03:31:16.924Z,35.37
2019-03-01T03:33:47.335Z,34.93
2019-03-01T03:36:17.636Z,35.37
2019-03-01T03:38:47.915Z,33.53
2019-03-01T03:41:18.155Z,37.17
2019-03-01T03:43:48.450Z,36.63
2019-03-01T03:46:18.685Z,35.77
2019-03-01T03:48:48.958Z,34.57
2019-03-01T03:51:19.297Z,35.27
2019-03-01T03:53:49.583Z,34.87
2019-03-01T03:56:19.816Z,35.20
2019-03-01T03:58:50.142Z,36.10
2019-03-01T04:01:20.362Z,35.83
2019-03-01T04:03:51.019Z,35.60
2019-03-01T04:06:21.292Z,35.03
2019-03-01T04:08:51.788Z,34.17
2019-03-01T04:11:22.033Z,36.43
2019-03-01T04:13:52.478Z,33.93
2019-03-01T04:16:22.726Z,34.63
2019-03-01T04:18:53.041Z,34.90
2019-03-01T04:21:23.319Z,35.20
2019-03-01T04:23:54.476Z,35.27
2019-03-01T04:26:24.794Z,32.43
2019-03-01T04:28:55.192Z,31.20
2019-03-01T04:31:25.563Z,33.20
2019-03-01T04:33:56.147Z,33.80
2019-03-01T04:36:26.429Z,31.40
2019-03-01T04:38:56.718Z,32.37
2019-03-01T04:41:27.145Z,34.13
2019-03-01T04:43:57.417Z,34.03
2019-03-01T04:46:27.667Z,33.57
2019-03-01T04:48:58.091Z,32.30
2019-03-01T04:51:28.374Z,31.43
2019-03-01T04:53:58.727Z,32.57
2019-03-01T04:56:29.871Z,33.30
2019-03-01T04:59:00.065Z,35.17
2019-03-01T05:01:30.375Z,34.63
2019-03-01T05:04:00.703Z,34.80
2019-03-01T05:06:30.984Z,35.83
2019-03-01T05:09:01.157Z,33.93
2019-03-01T05:11:33.102Z,35.23
2019-03-01T05:14:03.397Z,36.87
2019-03-01T05:16:33.598Z,35.23
2019-03-01T05:19:03.805Z,35.47
2019-03-01T05:21:34.105Z,33.23
2019-03-01T05:24:04.405Z,35.77
2019-03-01T05:26:34.915Z,34.37
2019-03-01T05:29:05.144Z,34.93
2019-03-01T05:31:36.157Z,35.10
2019-03-01T05:34:06.631Z,34.90
2019-03-01T05:36:36.927Z,34.07
2019-03-01T05:39:07.213Z,33.07
2019-03-01T05:41:37.942Z,36.23
2019-03-01T05:44:08.229Z,36.13
2019-03-01T05:46:38.723Z,34.27
2019-03-01T05:49:08.956Z,35.83
2019-03-01T05:51:39.455Z,36.23
2019-03-01T05:54:09.555Z,36.03
2019-03-01T05:56:39.867Z,36.33
2019-03-01T05:59:13.516Z,35.97
2019-03-01T06:02:11.584Z,34.00
2019-03-01T06:04:48.879Z,35.17
2019-03-01T06:08:06.590Z,33.33
2019-03-01T06:11:26.735Z,32.93
2019-03-01T06:14:10.521Z,32.40
2019-03-01T06:17:24.079Z,33.73
2019-03-01T06:20:28.513Z,34.60
2019-03-01T06:23:28.773Z,37.10
2019-03-01T06:26:36.156Z,35.63
2019-03-01T06:29:50.186Z,34.43
2019-03-01T06:33:10.822Z,34.00
2019-03-01T06:36:16.909Z,33.03
2019-03-01T06:39:57.312Z,30.90
2019-03-01T06:42:54.745Z,32.00
2019-03-01T06:46:21.924Z,32.67
2019-03-01T06:48:56.610Z,32.00
2019-03-01T06:51:30.015Z,33.27
2019-03-01T06:54:00.281Z,32.03
2019-03-01T06:56:30.559Z,30.37
2019-03-01T06:59:03.320Z,29.70
2019-03-01T07:01:44.138Z,30.37
2019-03-01T07:04:21.295Z,30.80
2019-03-01T07:06:51.692Z,29.17
2019-03-01T07:09:22.502Z,30.70
2019-03-01T07:11:52.756Z,30.70
2019-03-01T07:14:24.193Z,30.53
2019-03-01T07:16:54.446Z,30.43
2019-03-01T07:19:25.218Z,30.37
2019-03-01T07:21:55.498Z,30.37
2019-03-01T07:24:25.794Z,31.80
2019-03-01T07:26:56.437Z,31.03
2019-03-01T07:29:26.730Z,30.43
2019-03-01T07:31:57.084Z,30.80
2019-03-01T07:34:27.358Z,29.27
2019-03-01T07:36:57.654Z,28.87
2019-03-01T07:39:28.387Z,28.53
2019-03-01T07:41:58.664Z,27.83
2019-03-01T07:44:29.061Z,29.17
2019-03-01T07:46:59.362Z,29.80
2019-03-01T07:49:29.660Z,29.07
2019-03-01T07:52:01.709Z,29.63
2019-03-01T07:54:31.769Z,30.93
2019-03-01T07:57:02.015Z,30.80
2019-03-01T07:59:37.964Z,27.13
2019-03-01T08:02:05.118Z,25.97
2019-03-01T08:04:35.525Z,27.63
2019-03-01T08:07:05.871Z,28.20
2019-03-01T08:09:36.417Z,31.43
2019-03-01T08:12:08.059Z,24.17
2019-03-01T08:14:38.517Z,27.40
2019-03-01T08:17:09.058Z,26.53
2019-03-01T08:19:39.309Z,26.57
2019-03-01T08:22:09.579Z,25.77
2019-03-01T08:24:42.782Z,26.33
2019-03-01T08:27:12.889Z,26.77
2019-03-01T08:29:43.192Z,25.10
2019-03-01T08:32:13.539Z,28.10
2019-03-01T08:34:45.089Z,27.27
2019-03-01T08:37:17.663Z,28.53
2019-03-01T08:39:49.638Z,28.30
2019-03-01T08:42:19.837Z,22.83
2019-03-01T08:44:50.199Z,24.80
2019-03-01T08:47:23.736Z,25.83
2019-03-01T08:49:52.337Z,25.30
2019-03-01T08:52:22.573Z,27.67
2019-03-01T08:54:53.001Z,25.13
2019-03-01T08:57:26.523Z,24.47
2019-03-01T08:59:55.271Z,24.23
2019-03-01T09:02:25.507Z,20.20
2019-03-01T09:04:55.761Z,21.10
2019-03-01T09:07:30.141Z,21.87
2019-03-01T09:09:59.179Z,21.03
2019-03-01T09:12:30.821Z,21.70
2019-03-01T09:15:04.373Z,20.37
2019-03-01T09:17:32.973Z,19.37
2019-03-01T09:20:03.247Z,21.37
2019-03-01T09:22:33.823Z,23.47
2019-03-01T09:25:08.690Z,19.17
2019-03-01T09:27:38.266Z,16.93
2019-03-01T09:30:18.558Z,19.83
2019-03-01T09:32:48.796Z,18.60
2019-03-01T09:35:57.576Z,20.50
2019-03-01T09:38:27.856Z,20.83
2019-03-01T09:41:01.241Z,18.97
2019-03-01T09:43:30.137Z,16.10
2019-03-01T09:46:00.442Z,20.90
2019-03-01T09:48:30.686Z,20.03
2019-03-01T09:51:00.947Z,18.93
2019-03-01T09:53:34.027Z,18.03
2019-03-01T09:56:03.172Z,17.80
2019-03-01T09:58:33.474Z,17.77
2019-03-01T10:01:07.454Z,18.43
2019-03-01T10:03:37.706Z,19.50
2019-03-01T10:06:07.974Z,16.93
2019-03-01T10:08:38.285Z,15.90
2019-03-01T10:11:08.734Z,16.57
2019-03-01T10:13:38.961Z,18.37
2019-03-01T10:16:09.280Z,17.80
2019-03-01T10:18:39.622Z,17.73
2019-03-01T10:21:09.916Z,16.83
2019-03-01T10:23:40.189Z,16.23
2019-03-01T10:26:10.722Z,17.23
2019-03-01T10:28:40.996Z,16.30
2019-03-01T10:31:11.387Z,12.73
2019-03-01T10:33:41.630Z,13.57
2019-03-01T10:36:12.158Z,12.70
2019-03-01T10:38:42.551Z,13.17
2019-03-01T10:41:13.934Z,14.17
2019-03-01T10:43:44.190Z,13.07
2019-03-01T10:46:14.510Z,12.73
2019-03-01T10:48:44.826Z,13.97
2019-03-01T10:51:15.156Z,13.87
2019-03-01T10:53:45.391Z,14.03
2019-03-01T10:56:15.713Z,14.60
2019-03-01T10:58:46.001Z,15.03
2019-03-01T11:01:16.318Z,15.07
2019-03-01T11:03:46.555Z,14.70
2019-03-01T11:06:16.897Z,13.50
2019-03-01T11:08:47.141Z,14.83
2019-03-01T11:11:17.426Z,14.07
2019-03-01T11:13:48.322Z,14.37
2019-03-01T11:16:18.580Z,14.47
2019-03-01T11:18:49.118Z,13.60
2019-03-01T11:21:19.359Z,11.27
2019-03-01T11:23:49.870Z,10.20
2019-03-01T11:26:20.111Z,12.33
2019-03-01T11:28:50.469Z,9.90
2019-03-01T11:31:20.734Z,9.37
2019-03-01T11:33:51.027Z,10.27
2019-03-01T11:36:21.280Z,9.53
2019-03-01T11:38:52.425Z,10.37
2019-03-01T11:41:23.043Z,10.63
2019-03-01T11:43:53.326Z,10.63
2019-03-01T11:46:23.530Z,9.90
2019-03-01T11:48:53.912Z,10.13
2019-03-01T11:51:25.411Z,11.10
2019-03-01T11:53:56.801Z,9.63
2019-03-01T11:56:27.154Z,10.57
2019-03-01T11:58:57.849Z,11.60
2019-03-01T12:01:28.121Z,11.33
2019-03-01T12:03:58.418Z,11.93
2019-03-01T12:06:28.687Z,11.77
2019-03-01T12:08:59.114Z,9.63
2019-03-01T12:11:29.409Z,8.77
2019-03-01T12:14:00.095Z,9.27
2019-03-01T12:16:30.554Z,9.43
2019-03-01T12:19:01.019Z,10.03
2019-03-01T12:21:31.255Z,9.33
2019-03-01T12:24:01.594Z,10.20
2019-03-01T12:26:31.905Z,10.70
2019-03-01T12:29:02.213Z,9.87
2019-03-01T12:31:32.515Z,9.23
2019-03-01T12:34:02.811Z,8.40
2019-03-01T12:36:33.171Z,8.27
2019-03-01T12:39:04.527Z,9.03
2019-03-01T12:41:36.431Z,9.40
2019-03-01T12:44:06.728Z,10.23
2019-03-01T12:46:37.016Z,9.57
2019-03-01T12:49:07.247Z,9.97
2019-03-01T12:51:37.559Z,10.63
2019-03-01T12:54:07.836Z,9.93
2019-03-01T12:56:38.110Z,9.83
2019-03-01T12:59:08.420Z,9.00
2019-03-01T13:01:38.774Z,9.23
2019-03-01T13:04:09.107Z,10.27
2019-03-01T13:06:39.935Z,9.27
2019-03-01T13:09:15.595Z,9.80
2019-03-01T13:11:48.648Z,9.80
2019-03-01T13:14:18.037Z,9.90
2019-03-01T13:16:48.298Z,8.80
2019-03-01T13:19:19.918Z,10.40
2019-03-01T13:21:50.154Z,9.23
2019-03-01T13:24:20.402Z,9.63
2019-03-01T13:26:50.671Z,10.10
2019-03-01T13:29:22.270Z,10.50
2019-03-01T13:31:52.872Z,10.00
2019-03-01T13:34:23.302Z,9.57
2019-03-01T13:36:53.627Z,9.90
2019-03-01T13:39:24.010Z,10.70
2019-03-01T13:41:54.303Z,9.50
2019-03-01T13:44:24.580Z,10.27
2019-03-01T13:46:55.118Z,10.20
2019-03-01T13:49:26.773Z,10.60
2019-03-01T13:51:58.136Z,10.80
2019-03-01T13:54:28.493Z,11.43
2019-03-01T13:56:58.837Z,10.90
2019-03-01T13:59:29.121Z,10.57
2019-03-01T14:01:59.662Z,10.30
2019-03-01T14:04:30.066Z,9.73
2019-03-01T14:07:00.393Z,10.40
2019-03-01T14:09:30.882Z,9.93
2019-03-01T14:12:01.202Z,9.93
2019-03-01T14:14:31.668Z,10.30
2019-03-01T14:17:01.914Z,10.43
2019-03-01T14:19:32.478Z,11.10
2019-03-01T14:22:05.277Z,11.27
2019-03-01T14:24:34.714Z,10.27
2019-03-01T14:27:05.046Z,10.77
2019-03-01T14:29:35.225Z,11.27
2019-03-01T14:32:05.971Z,10.77
2019-03-01T14:34:36.323Z,11.43
2019-03-01T14:37:06.798Z,11.27
2019-03-01T14:39:37.132Z,9.27
2019-03-01T14:42:11.036Z,9.93
2019-03-01T14:44:39.300Z,9.70
2019-03-01T14:47:09.578Z,10.13
2019-03-01T14:49:40.521Z,8.03
2019-03-01T14:52:10.821Z,7.47
2019-03-01T14:54:41.902Z,7.80
2019-03-01T14:57:21.529Z,5.63
2019-03-01T15:00:19.215Z,4.60
2019-03-01T15:03:02.623Z,3.40
2019-03-01T15:05:32.928Z,3.97
2019-03-01T15:08:06.475Z,3.30
2019-03-01T15:10:35.633Z,3.10
2019-03-01T15:13:06.361Z,2.53
2019-03-01T15:15:36.652Z,2.10
2019-03-01T15:18:07.750Z,2.20
2019-03-01T15:20:38.057Z,1.67
2019-03-01T15:23:08.470Z,2.00
2019-03-01T15:25:38.970Z,2.10
2019-03-01T15:28:09.305Z,2.20
2019-03-01T15:30:42.521Z,1.90
2019-03-01T15:33:13.173Z,2.10
2019-03-01T15:35:44.007Z,2.40
2019-03-01T15:38:15.333Z,2.40
2019-03-01T15:40:45.861Z,1.70
2019-03-01T15:43:16.641Z,2.13
2019-03-01T15:45:46.921Z,2.47
2019-03-01T15:48:17.449Z,2.60
2019-03-01T15:50:47.751Z,2.77
2019-03-01T15:53:18.138Z,3.17
2019-03-01T15:55:48.412Z,2.40
2019-03-01T15:58:18.803Z,2.00
2019-03-01T16:00:49.111Z,2.10
2019-03-01T16:03:20.013Z,2.07
2019-03-01T16:05:51.120Z,2.63
2019-03-01T16:08:22.945Z,2.10
2019-03-01T16:10:53.379Z,2.07
2019-03-01T16:13:23.973Z,2.23
2019-03-01T16:15:55.807Z,2.30
2019-03-01T16:18:26.417Z,1.30
2019-03-01T16:20:56.739Z,1.40
2019-03-01T16:23:27.461Z,1.47
2019-03-01T16:25:59.005Z,1.53
2019-03-01T16:28:31.106Z,1.80
2019-03-01T16:31:01.214Z,1.87
2019-03-01T16:33:31.846Z,1.50
2019-03-01T16:36:04.948Z,1.60
2019-03-01T16:38:40.939Z,1.50
2019-03-01T16:41:07.748Z,1.93
2019-03-01T16:43:38.767Z,1.43
2019-03-01T16:46:09.072Z,2.20
2019-03-01T16:48:39.379Z,2.30
2019-03-01T16:51:10.248Z,2.27
2019-03-01T16:53:41.589Z,2.13
2019-03-01T16:56:12.023Z,2.17
2019-03-01T16:58:42.792Z,2.57
2019-03-01T17:01:13.489Z,2.13
2019-03-01T17:03:43.749Z,2.30
2019-03-01T17:06:14.718Z,2.17
2019-03-01T17:08:45.235Z,2.40
2019-03-01T17:11:15.563Z,2.83
2019-03-01T17:13:45.836Z,2.37
2019-03-01T17:16:16.200Z,2.50
2019-03-01T17:18:48.574Z,2.03
2019-03-01T17:21:19.392Z,2.60
2019-03-01T17:23:49.657Z,2.57
2019-03-01T17:26:20.158Z,2.50
2019-03-01T17:28:50.418Z,2.70
2019-03-01T17:31:23.250Z,2.70
2019-03-01T17:33:52.730Z,2.63
2019-03-01T17:36:23.181Z,2.87
2019-03-01T17:38:53.428Z,2.57
2019-03-01T17:41:23.743Z,2.60
2019-03-01T17:43:53.967Z,2.77
2019-03-01T17:46:25.446Z,2.10
2019-03-01T17:48:57.404Z,2.30
2019-03-01T17:51:28.915Z,2.57
2019-03-01T17:53:59.426Z,2.50
2019-03-01T17:56:30.088Z,2.40
2019-03-01T17:59:00.442Z,2.63
2019-03-01T18:01:30.638Z,2.60
2019-03-01T18:04:01.912Z,2.40
2019-03-01T18:06:32.949Z,2.63
2019-03-01T18:09:04.862Z,2.60
2019-03-01T18:11:37.105Z,2.00
2019-03-01T18:14:07.390Z,2.17
2019-03-01T18:16:37.668Z,2.30
2019-03-01T18:19:07.894Z,1.70
2019-03-01T18:21:38.377Z,1.80
2019-03-01T18:24:11.055Z,2.00
2019-03-01T18:26:40.994Z,2.17
2019-03-01T18:29:11.400Z,2.00
2019-03-01T18:31:41.644Z,1.80
2019-03-01T18:34:11.999Z,2.10
2019-03-01T18:36:42.327Z,2.40
2019-03-01T18:39:12.863Z,3.30
2019-03-01T18:41:43.226Z,3.27
2019-03-01T18:44:13.577Z,3.00
2019-03-01T18:46:43.858Z,2.87
2019-03-01T18:49:16.755Z,2.40
2019-03-01T18:51:46.046Z,2.10
2019-03-01T18:54:18.874Z,2.77
2019-03-01T18:56:49.182Z,2.70
2019-03-01T18:59:21.683Z,2.77
2019-03-01T19:01:51.607Z,2.73
2019-03-01T19:04:29.680Z,2.63
2019-03-01T19:06:53.968Z,2.47
2019-03-01T19:09:24.230Z,2.80
2019-03-01T19:11:54.442Z,2.37
2019-03-01T19:14:24.766Z,2.60
2019-03-01T19:16:54.954Z,2.23
2019-03-01T19:19:29.799Z,2.33
2019-03-01T19:21:57.729Z,2.20
2019-03-01T19:24:28.184Z,2.20
2019-03-01T19:26:58.818Z,2.70
2019-03-01T19:29:29.139Z,2.73
2019-03-01T19:31:59.403Z,2.00
2019-03-01T19:34:29.708Z,2.40
2019-03-01T19:37:00.002Z,2.13
2019-03-01T19:39:32.551Z,2.00
2019-03-01T19:42:02.402Z,2.20
2019-03-01T19:44:32.779Z,1.90
2019-03-01T19:47:03.115Z,1.87
2019-03-01T19:49:34.768Z,2.73
2019-03-01T19:52:05.106Z,1.93
2019-03-01T19:54:35.668Z,1.73
2019-03-01T19:57:07.064Z,1.77
2019-03-01T19:59:37.386Z,1.40
2019-03-01T20:02:07.715Z,2.03
2019-03-01T20:04:37.995Z,1.73
2019-03-01T20:07:09.287Z,1.97
2019-03-01T20:09:39.867Z,1.87
2019-03-01T20:12:11.312Z,2.17
2019-03-01T20:14:41.643Z,2.10
2019-03-01T20:17:11.921Z,1.93
2019-03-01T20:19:42.291Z,2.00
2019-03-01T20:22:15.419Z,2.30
2019-03-01T20:24:44.644Z,1.83
2019-03-01T20:27:16.440Z,2.03
2019-03-01T20:29:49.535Z,2.20
2019-03-01T20:32:18.876Z,2.10
2019-03-01T20:34:49.232Z,2.10
2019-03-01T20:37:19.471Z,2.13
2019-03-01T20:39:51.051Z,1.97
2019-03-01T20:42:24.405Z,2.67
2019-03-01T20:44:53.982Z,2.13
2019-03-01T20:47:24.740Z,2.50
2019-03-01T20:49:55.285Z,2.47
2019-03-01T20:52:25.631Z,2.37
2019-03-01T20:54:57.795Z,2.60
2019-03-01T20:57:28.320Z,2.10
2019-03-01T20:59:58.950Z,2.10
2019-03-01T21:02:30.403Z,2.37
2019-03-01T21:05:00.823Z,2.10
2019-03-01T21:07:31.305Z,2.30
2019-03-01T21:10:01.766Z,2.00
2019-03-01T21:12:33.516Z,1.90
2019-03-01T21:15:05.350Z,2.10
2019-03-01T21:17:36.036Z,2.13
2019-03-01T21:20:07.750Z,2.70
2019-03-01T21:22:39.824Z,2.43
2019-03-01T21:25:11.646Z,2.23
2019-03-01T21:27:42.187Z,2.03
2019-03-01T21:30:16.008Z,2.10
2019-03-01T21:32:46.919Z,2.10
2019-03-01T21:35:21.371Z,2.00
2019-03-01T21:37:52.448Z,1.90
2019-03-01T21:40:23.278Z,2.03
2019-03-01T21:42:57.307Z,1.90
2019-03-01T21:45:26.124Z,2.20
2019-03-01T21:47:56.684Z,1.77
2019-03-01T21:50:28.386Z,1.87
2019-03-01T21:53:01.712Z,2.13
2019-03-01T21:55:30.941Z,1.77
2019-03-01T21:58:03.330Z,1.80
2019-03-01T22:00:34.874Z,1.97
2019-03-01T22:03:05.246Z,2.00
2019-03-01T22:05:35.507Z,2.10
2019-03-01T22:08:09.558Z,1.97
2019-03-01T22:10:39.061Z,1.50
2019-03-01T22:13:09.350Z,1.80
2019-03-01T22:15:39.606Z,1.83
2019-03-01T22:18:09.902Z,2.23
2019-03-01T22:20:41.514Z,2.57
2019-03-01T22:23:15.637Z,2.00
2019-03-01T22:25:44.215Z,1.70
2019-03-01T22:28:14.663Z,2.33
2019-03-01T22:30:45.147Z,2.40
2019-03-01T22:33:17.429Z,1.87
2019-03-01T22:35:48.230Z,2.30
2019-03-01T22:38:18.710Z,2.50
2019-03-01T22:40:49.151Z,2.83
2019-03-01T22:43:22.489Z,2.57
2019-03-01T22:45:51.652Z,3.17
2019-03-01T22:48:22.169Z,2.40
2019-03-01T22:50:53.487Z,2.90
2019-03-01T22:53:23.997Z,3.30
2019-03-01T22:55:54.223Z,3.30
2019-03-01T22:58:25.935Z,2.60
2019-03-01T23:01:17.015Z,3.10
2019-03-01T23:03:57.830Z,3.23
2019-03-01T23:06:29.360Z,3.47
2019-03-01T23:08:59.863Z,3.50
2019-03-01T23:11:32.416Z,3.20
2019-03-01T23:14:03.845Z,3.07
2019-03-01T23:16:34.093Z,3.20
2019-03-01T23:19:05.980Z,3.10
2019-03-01T23:21:36.883Z,3.33
2019-03-01T23:24:07.377Z,3.13
2019-03-01T23:26:37.556Z,2.90
2019-03-01T23:29:08.109Z,3.30
2019-03-01T23:31:39.017Z,3.20
2019-03-01T23:34:10.405Z,3.00
2019-03-01T23:36:40.752Z,2.77
2019-03-01T23:39:11.752Z,3.03
2019-03-01T23:41:46.272Z,3.50
2019-03-01T23:44:15.589Z,3.77
2019-03-01T23:46:45.862Z,3.30
2019-03-01T23:49:16.249Z,3.73
2019-03-01T23:51:46.743Z,3.27
2019-03-01T23:54:17.122Z,3.20
2019-03-01T23:56:48.537Z,3.40
2019-03-01T23:59:18.961Z,3.77
